createdAt,value
2023-05-19T00:02:11.745Z,8.40
2023-05-19T00:04:58.219Z,8.40
2023-05-19T00:07:46.114Z,8.30
2023-05-19T00:10:32.933Z,8.30
2023-05-19T00:13:19.660Z,8.30
2023-05-19T00:16:06.777Z,8.20
2023-05-19T00:18:54.029Z,8.20
2023-05-19T00:21:39.959Z,8.10
2023-05-19T00:24:26.274Z,8.10
2023-05-19T00:27:11.915Z,8.10
2023-05-19T00:29:57.826Z,8.10
2023-05-19T00:32:43.484Z,8.00
2023-05-19T00:35:30.983Z,8.00
2023-05-19T00:38:16.668Z,8.00
2023-05-19T00:41:05.083Z,7.90
2023-05-19T00:43:51.533Z,7.90
2023-05-19T00:46:37.852Z,7.90
2023-05-19T00:49:23.742Z,7.90
2023-05-19T00:52:10.757Z,7.90
2023-05-19T00:54:57.395Z,7.80
2023-05-19T00:57:44.374Z,7.80
2023-05-19T01:00:30.814Z,7.80
2023-05-19T01:03:16.600Z,7.80
2023-05-19T01:06:05.314Z,7.80
2023-05-19T01:08:52.757Z,7.80
2023-05-19T01:11:38.969Z,7.80
2023-05-19T01:14:24.394Z,7.80
2023-05-19T01:17:21.130Z,7.80
2023-05-19T01:20:16.571Z,7.80
2023-05-19T01:23:23.732Z,7.90
2023-05-19T01:26:54.948Z,7.90
2023-05-19T01:30:10.868Z,7.90
2023-05-19T01:33:01.254Z,7.80
2023-05-19T01:35:48.940Z,7.80
2023-05-19T01:38:35.612Z,7.80
2023-05-19T01:41:23.100Z,7.80
2023-05-19T01:44:11.958Z,7.80
2023-05-19T01:47:00.632Z,7.70
2023-05-19T01:49:47.089Z,7.70
2023-05-19T01:52:33.848Z,7.70
2023-05-19T01:55:19.820Z,7.70
2023-05-19T01:58:17.498Z,7.70
2023-05-19T02:01:16.499Z,7.60
2023-05-19T02:04:19.851Z,7.70
2023-05-19T02:07:15.461Z,7.60
2023-05-19T02:10:06.944Z,7.60
2023-05-19T02:12:57.897Z,7.60
2023-05-19T02:15:47.080Z,7.50
2023-05-19T02:18:33.792Z,7.50
2023-05-19T02:21:21.277Z,7.50
2023-05-19T02:24:07.825Z,7.50
2023-05-19T02:26:54.625Z,7.50
2023-05-19T02:29:40.435Z,7.50
2023-05-19T02:32:26.156Z,7.50
2023-05-19T02:35:12.965Z,7.50
2023-05-19T02:38:00.440Z,7.50
2023-05-19T02:40:46.206Z,7.50
2023-05-19T02:43:31.825Z,7.50
2023-05-19T02:46:17.723Z,7.50
2023-05-19T02:49:03.724Z,7.60
2023-05-19T02:51:49.701Z,7.60
2023-05-19T02:54:36.580Z,7.60
2023-05-19T02:57:22.320Z,7.60
2023-05-19T03:00:09.994Z,7.60
2023-05-19T03:02:55.528Z,7.70
2023-05-19T03:05:44.731Z,7.70
2023-05-19T03:08:30.285Z,7.80
2023-05-19T03:11:17.665Z,7.90
2023-05-19T03:14:03.347Z,7.90
2023-05-19T03:20:00.456Z,7.90
2023-05-19T03:22:46.133Z,8.00
2023-05-19T03:25:31.810Z,8.00
2023-05-19T03:28:18.852Z,8.10
2023-05-19T03:31:04.995Z,8.10
2023-05-19T03:33:55.707Z,8.20
2023-05-19T03:36:41.590Z,8.30
2023-05-19T03:39:32.081Z,8.30
2023-05-19T03:42:17.687Z,8.40
2023-05-19T03:48:19.674Z,8.50
2023-05-19T03:51:27.380Z,8.60
2023-05-19T03:54:15.353Z,8.70
2023-05-19T03:57:01.710Z,8.80
2023-05-19T03:59:48.302Z,8.80
2023-05-19T04:02:35.574Z,9.00
2023-05-19T04:05:21.209Z,9.10
2023-05-19T04:08:06.875Z,9.20
2023-05-19T04:10:52.895Z,9.30
2023-05-19T04:13:38.508Z,9.40
2023-05-19T04:16:24.237Z,9.50
2023-05-19T04:19:12.295Z,9.60
2023-05-19T04:21:58.726Z,9.70
2023-05-19T04:24:44.858Z,9.80
2023-05-19T04:27:31.867Z,9.90
2023-05-19T04:30:18.684Z,10.10
2023-05-19T04:33:05.429Z,10.20
2023-05-19T04:35:53.510Z,10.30
2023-05-19T04:38:41.004Z,10.40
2023-05-19T04:41:29.853Z,10.50
2023-05-19T04:44:15.914Z,10.60
2023-05-19T04:47:04.380Z,10.70
2023-05-19T04:49:50.939Z,10.80
2023-05-19T04:52:38.611Z,11.00
2023-05-19T04:55:32.455Z,11.10
2023-05-19T04:58:18.927Z,11.30
2023-05-19T05:01:06.662Z,11.30
2023-05-19T05:03:53.173Z,11.40
2023-05-19T05:06:39.600Z,11.50
2023-05-19T05:09:26.975Z,11.60
2023-05-19T05:12:17.117Z,11.70
2023-05-19T05:15:07.277Z,11.80
2023-05-19T05:17:54.131Z,11.90
2023-05-19T05:20:43.021Z,12.00
2023-05-19T05:23:31.634Z,12.10
2023-05-19T05:26:21.340Z,12.20
2023-05-19T05:29:09.880Z,12.30
2023-05-19T05:31:56.244Z,12.40
2023-05-19T05:34:43.149Z,12.60
2023-05-19T05:37:31.647Z,12.70
2023-05-19T05:40:19.354Z,12.80
2023-05-19T05:43:07.193Z,13.00
2023-05-19T05:45:57.792Z,13.20
2023-05-19T05:48:45.292Z,13.30
2023-05-19T05:51:32.296Z,13.50
2023-05-19T05:54:22.644Z,13.70
2023-05-19T05:57:10.971Z,13.90
2023-05-19T05:59:58.949Z,14.10
2023-05-19T06:02:47.407Z,14.20
2023-05-19T06:05:35.868Z,14.30
2023-05-19T06:08:22.070Z,14.50
2023-05-19T06:11:08.451Z,14.70
2023-05-19T06:13:56.189Z,14.90
2023-05-19T06:17:03.523Z,15.10
2023-05-19T06:19:50.222Z,15.20
2023-05-19T06:22:36.399Z,15.40
2023-05-19T06:25:23.523Z,15.60
2023-05-19T06:28:09.498Z,15.80
2023-05-19T06:30:55.663Z,16.00
2023-05-19T06:34:03.325Z,16.10
2023-05-19T06:36:49.540Z,16.30
2023-05-19T06:39:38.413Z,16.50
2023-05-19T06:42:24.451Z,16.80
2023-05-19T06:45:30.698Z,17.20
2023-05-19T06:48:19.312Z,17.40
2023-05-19T06:51:07.145Z,17.80
2023-05-19T06:53:53.967Z,18.30
2023-05-19T06:56:41.423Z,18.60
2023-05-19T06:59:27.647Z,18.70
2023-05-19T07:02:13.634Z,19.00
2023-05-19T07:04:59.734Z,19.30
2023-05-19T07:07:47.633Z,20.00
2023-05-19T07:10:37.834Z,20.40
2023-05-19T07:13:28.896Z,20.90
2023-05-19T07:16:16.383Z,21.10
2023-05-19T07:19:04.116Z,21.70
2023-05-19T07:21:53.287Z,22.10
2023-05-19T07:24:41.270Z,22.50
2023-05-19T07:27:27.652Z,22.80
2023-05-19T07:30:14.494Z,23.20
2023-05-19T07:33:00.644Z,23.50
2023-05-19T07:35:47.722Z,23.90
2023-05-19T07:38:33.569Z,24.20
2023-05-19T07:41:21.395Z,24.20
2023-05-19T07:44:07.779Z,24.30
2023-05-19T07:46:54.401Z,24.10
2023-05-19T07:49:40.867Z,23.90
2023-05-19T07:52:27.015Z,24.00
2023-05-19T07:55:13.044Z,24.10
2023-05-19T07:58:00.720Z,24.00
2023-05-19T08:00:46.594Z,24.40
2023-05-19T08:03:33.033Z,24.90
2023-05-19T08:06:19.008Z,25.50
2023-05-19T08:09:04.697Z,26.00
2023-05-19T08:11:50.498Z,26.40
2023-05-19T08:14:38.210Z,26.70
2023-05-19T08:17:25.341Z,27.00
2023-05-19T08:20:12.246Z,27.10
2023-05-19T08:22:58.517Z,27.40
2023-05-19T08:25:44.822Z,27.70
2023-05-19T08:28:30.418Z,28.00
2023-05-19T08:31:17.869Z,28.20
2023-05-19T08:34:04.264Z,28.50
2023-05-19T08:36:50.040Z,28.80
2023-05-19T08:39:36.048Z,29.10
2023-05-19T08:42:22.166Z,29.30
2023-05-19T08:45:09.699Z,29.50
2023-05-19T08:47:58.021Z,29.70
2023-05-19T08:50:55.159Z,29.80
2023-05-19T08:53:45.401Z,29.80
2023-05-19T08:56:32.426Z,30.00
2023-05-19T08:59:21.721Z,29.90
2023-05-19T09:02:13.066Z,30.20
2023-05-19T09:05:01.016Z,30.50
2023-05-19T09:08:12.636Z,30.60
2023-05-19T09:10:58.244Z,30.70
2023-05-19T09:13:43.622Z,30.90
2023-05-19T09:16:30.538Z,31.00
2023-05-19T09:19:16.723Z,31.10
2023-05-19T09:22:04.877Z,31.10
2023-05-19T09:24:51.688Z,31.20
2023-05-19T09:27:38.246Z,31.50
2023-05-19T09:30:24.958Z,31.70
2023-05-19T09:33:17.108Z,31.90
2023-05-19T09:36:04.518Z,32.10
2023-05-19T09:38:52.676Z,32.30
2023-05-19T09:41:38.542Z,32.80
2023-05-19T09:44:26.270Z,33.20
2023-05-19T09:47:13.618Z,33.40
2023-05-19T09:50:00.136Z,33.60
2023-05-19T09:52:45.966Z,33.90
2023-05-19T09:55:33.695Z,34.20
2023-05-19T09:58:20.146Z,34.40
2023-05-19T10:01:08.486Z,34.40
2023-05-19T10:03:56.065Z,34.50
2023-05-19T10:06:42.686Z,34.70
2023-05-19T10:09:30.139Z,34.30
2023-05-19T10:12:18.245Z,34.40
2023-05-19T10:15:05.823Z,34.20
2023-05-19T10:17:53.014Z,34.30
2023-05-19T10:20:40.974Z,34.70
2023-05-19T10:23:27.739Z,35.00
2023-05-19T10:26:15.104Z,35.30
2023-05-19T10:29:05.846Z,35.50
2023-05-19T10:31:56.019Z,35.60
2023-05-19T10:35:15.505Z,35.50
2023-05-19T10:38:15.562Z,35.70
2023-05-19T10:41:10.781Z,35.70
2023-05-19T10:44:14.424Z,35.70
2023-05-19T10:47:00.295Z,35.70
2023-05-19T10:49:45.900Z,35.70
2023-05-19T10:52:36.583Z,35.70
2023-05-19T10:55:47.677Z,36.10
2023-05-19T10:58:49.684Z,36.40
2023-05-19T11:01:37.164Z,36.40
2023-05-19T11:04:40.065Z,36.60
2023-05-19T11:07:25.805Z,36.70
2023-05-19T11:10:13.222Z,36.90
2023-05-19T11:12:59.374Z,37.10
2023-05-19T11:15:45.986Z,37.40
2023-05-19T11:18:34.251Z,37.40
2023-05-19T11:21:20.342Z,37.40
2023-05-19T11:24:09.149Z,37.40
2023-05-19T11:26:55.203Z,37.40
2023-05-19T11:29:41.866Z,37.70
2023-05-19T11:32:30.467Z,37.80
2023-05-19T11:35:19.431Z,37.80
2023-05-19T11:38:06.771Z,37.70
2023-05-19T11:40:54.237Z,37.60
2023-05-19T11:43:41.810Z,37.90
2023-05-19T11:46:28.336Z,38.00
2023-05-19T11:49:15.612Z,38.20
2023-05-19T11:52:06.540Z,38.20
2023-05-19T11:54:52.904Z,38.30
2023-05-19T11:57:39.637Z,38.30
2023-05-19T12:00:26.580Z,38.40
2023-05-19T12:03:13.587Z,38.60
2023-05-19T12:05:59.986Z,38.60
2023-05-19T12:08:47.215Z,38.60
2023-05-19T12:11:34.139Z,38.70
2023-05-19T12:14:20.133Z,38.70
2023-05-19T12:17:13.982Z,38.20
2023-05-19T12:20:00.458Z,38.00
2023-05-19T12:22:47.867Z,38.30
2023-05-19T12:25:34.985Z,38.60
2023-05-19T12:28:21.262Z,38.50
2023-05-19T12:31:07.721Z,38.20
2023-05-19T12:33:53.856Z,38.20
2023-05-19T12:36:41.887Z,38.20
2023-05-19T12:39:28.422Z,38.40
2023-05-19T12:42:16.555Z,38.50
2023-05-19T12:45:04.624Z,38.40
2023-05-19T12:47:51.923Z,38.40
2023-05-19T12:50:38.595Z,38.30
2023-05-19T12:53:27.180Z,38.50
2023-05-19T12:56:15.038Z,38.50
2023-05-19T12:59:02.347Z,38.50
2023-05-19T13:01:56.358Z,38.30
2023-05-19T13:04:42.837Z,38.10
2023-05-19T13:07:29.180Z,37.50
2023-05-19T13:10:15.485Z,37.60
2023-05-19T13:13:01.719Z,37.60
2023-05-19T13:15:49.624Z,37.70
2023-05-19T13:18:36.036Z,37.80
2023-05-19T13:21:22.061Z,37.80
2023-05-19T13:24:07.653Z,38.00
2023-05-19T13:26:54.016Z,38.00
2023-05-19T13:29:40.403Z,37.90
2023-05-19T13:32:27.728Z,37.70
2023-05-19T13:35:15.180Z,37.70
2023-05-19T13:38:01.544Z,37.60
2023-05-19T13:40:47.741Z,37.40
2023-05-19T13:43:34.395Z,37.50
2023-05-19T13:46:26.628Z,37.30
2023-05-19T13:49:20.144Z,37.00
2023-05-19T13:52:06.773Z,36.80
2023-05-19T13:54:57.985Z,36.60
2023-05-19T13:57:46.760Z,36.50
2023-05-19T14:00:32.913Z,36.40
2023-05-19T14:03:19.254Z,36.40
2023-05-19T14:06:07.236Z,36.30
2023-05-19T14:08:54.132Z,36.10
2023-05-19T14:11:40.580Z,35.70
2023-05-19T14:14:27.123Z,35.50
2023-05-19T14:17:13.641Z,35.20
2023-05-19T14:20:00.394Z,34.80
2023-05-19T14:22:48.383Z,34.60
2023-05-19T14:25:34.379Z,34.50
2023-05-19T14:28:21.016Z,34.40
2023-05-19T14:31:11.479Z,34.20
2023-05-19T14:33:57.684Z,34.10
2023-05-19T14:36:43.863Z,34.00
2023-05-19T14:39:31.794Z,33.90
2023-05-19T14:42:17.748Z,34.10
2023-05-19T14:45:04.397Z,34.20
2023-05-19T14:47:50.620Z,34.20
2023-05-19T14:50:43.711Z,34.20
2023-05-19T14:53:30.075Z,34.10
2023-05-19T14:56:17.334Z,34.00
2023-05-19T14:59:08.751Z,34.00
2023-05-19T15:01:54.114Z,34.10
2023-05-19T15:04:45.513Z,34.00
2023-05-19T15:07:31.678Z,33.80
2023-05-19T15:10:17.931Z,33.40
2023-05-19T15:13:05.482Z,33.00
2023-05-19T15:15:58.847Z,32.60
2023-05-19T15:18:50.835Z,32.40
2023-05-19T15:21:37.193Z,32.20
2023-05-19T15:24:23.387Z,32.10
2023-05-19T15:27:09.494Z,32.00
2023-05-19T15:29:56.268Z,32.00
2023-05-19T15:32:42.467Z,32.10
2023-05-19T15:35:28.347Z,32.00
2023-05-19T15:38:13.957Z,32.00
2023-05-19T15:40:59.974Z,31.70
2023-05-19T15:43:46.190Z,31.90
2023-05-19T15:46:34.654Z,31.70
2023-05-19T15:49:20.357Z,30.60
2023-05-19T15:52:07.103Z,29.70
2023-05-19T15:54:53.684Z,29.00
2023-05-19T15:57:42.383Z,28.70
2023-05-19T16:00:28.134Z,28.10
2023-05-19T16:03:15.772Z,28.00
2023-05-19T16:06:01.539Z,27.70
2023-05-19T16:08:47.467Z,26.90
2023-05-19T16:11:33.046Z,26.40
2023-05-19T16:14:18.753Z,25.90
2023-05-19T16:17:04.868Z,25.50
2023-05-19T16:19:52.149Z,25.30
2023-05-19T16:22:38.349Z,25.00
2023-05-19T16:25:23.957Z,24.60
2023-05-19T16:28:10.269Z,24.20
2023-05-19T16:30:57.603Z,24.10
2023-05-19T16:33:43.879Z,24.00
2023-05-19T16:36:30.828Z,23.90
2023-05-19T16:39:16.481Z,23.80
2023-05-19T16:42:02.074Z,23.70
2023-05-19T16:44:48.099Z,23.60
2023-05-19T16:47:34.729Z,23.50
2023-05-19T16:50:20.484Z,23.30
2023-05-19T16:53:08.511Z,23.20
2023-05-19T16:55:54.405Z,23.10
2023-05-19T16:58:40.078Z,22.90
2023-05-19T17:01:25.977Z,22.90
2023-05-19T17:04:11.313Z,22.90
2023-05-19T17:06:57.091Z,23.00
2023-05-19T17:09:44.583Z,23.30
2023-05-19T17:12:30.587Z,23.50
2023-05-19T17:15:16.439Z,23.50
2023-05-19T17:18:02.376Z,23.40
2023-05-19T17:20:47.868Z,23.50
2023-05-19T17:23:33.529Z,23.30
2023-05-19T17:26:21.048Z,23.10
2023-05-19T17:29:07.991Z,22.90
2023-05-19T17:31:53.817Z,23.00
2023-05-19T17:34:39.896Z,23.00
2023-05-19T17:37:28.169Z,22.90
2023-05-19T17:40:14.297Z,22.70
2023-05-19T17:43:01.653Z,22.60
2023-05-19T17:45:47.422Z,22.50
2023-05-19T17:48:33.420Z,22.50
2023-05-19T17:51:20.196Z,22.50
2023-05-19T17:54:08.775Z,22.40
2023-05-19T17:56:58.500Z,22.40
2023-05-19T17:59:46.620Z,22.30
2023-05-19T18:02:33.762Z,22.20
2023-05-19T18:05:20.673Z,22.00
2023-05-19T18:08:08.372Z,21.90
2023-05-19T18:10:57.185Z,21.80
2023-05-19T18:13:42.684Z,21.60
2023-05-19T18:16:29.949Z,21.40
2023-05-19T18:19:20.351Z,21.30
2023-05-19T18:22:06.346Z,21.00
2023-05-19T18:24:51.787Z,20.80
2023-05-19T18:27:37.273Z,20.60
2023-05-19T18:30:23.067Z,20.40
2023-05-19T18:33:09.998Z,20.30
2023-05-19T18:35:56.106Z,20.10
2023-05-19T18:38:41.821Z,20.00
2023-05-19T18:41:28.222Z,19.80
2023-05-19T18:44:13.827Z,19.70
2023-05-19T18:46:59.895Z,19.50
2023-05-19T18:49:46.831Z,19.40
2023-05-19T18:52:32.509Z,19.20
2023-05-19T18:55:18.207Z,19.00
2023-05-19T18:58:04.166Z,18.80
2023-05-19T19:00:49.916Z,18.70
2023-05-19T19:03:36.093Z,18.50
2023-05-19T19:06:23.363Z,18.40
2023-05-19T19:09:08.919Z,18.20
2023-05-19T19:11:54.712Z,18.00
2023-05-19T19:14:40.133Z,17.90
2023-05-19T19:17:25.915Z,17.80
2023-05-19T19:20:12.936Z,17.70
2023-05-19T19:23:00.172Z,17.50
2023-05-19T19:25:46.058Z,17.40
2023-05-19T19:28:31.695Z,17.30
2023-05-19T19:31:17.663Z,17.20
2023-05-19T19:34:03.488Z,17.10
2023-05-19T19:36:49.546Z,17.00
2023-05-19T19:39:36.871Z,16.90
2023-05-19T19:42:22.974Z,16.80
2023-05-19T19:45:10.275Z,16.70
2023-05-19T19:47:56.036Z,16.60
2023-05-19T19:50:41.649Z,16.50
2023-05-19T19:53:27.708Z,16.40
2023-05-19T19:56:14.743Z,16.30
2023-05-19T19:59:01.014Z,16.20
2023-05-19T20:01:46.910Z,16.10
2023-05-19T20:04:32.867Z,16.00
2023-05-19T20:07:18.986Z,15.90
2023-05-19T20:10:05.950Z,15.90
2023-05-19T20:12:53.218Z,15.80
2023-05-19T20:15:39.108Z,15.70
2023-05-19T20:18:24.861Z,15.60
2023-05-19T20:21:10.535Z,15.60
2023-05-19T20:23:56.487Z,15.50
2023-05-19T20:26:42.098Z,15.40
2023-05-19T20:29:29.314Z,15.40
2023-05-19T20:32:14.897Z,15.40
2023-05-19T20:35:01.212Z,15.30
2023-05-19T20:37:46.938Z,15.20
2023-05-19T20:40:32.511Z,15.10
2023-05-19T20:43:18.254Z,15.00
2023-05-19T20:46:05.416Z,15.00
2023-05-19T20:52:04.405Z,14.80
2023-05-19T20:54:50.234Z,14.70
2023-05-19T20:57:35.987Z,14.70
2023-05-19T21:00:21.980Z,14.60
2023-05-19T21:03:09.132Z,14.60
2023-05-19T21:05:55.649Z,14.50
2023-05-19T21:08:41.218Z,14.50
2023-05-19T21:11:27.153Z,14.40
2023-05-19T21:14:12.694Z,14.40
2023-05-19T21:16:58.532Z,14.30
2023-05-19T21:19:45.330Z,14.30
2023-05-19T21:22:31.542Z,14.20
2023-05-19T21:25:17.393Z,14.20
2023-05-19T21:28:03.121Z,14.10
2023-05-19T21:30:49.442Z,14.10
2023-05-19T21:33:35.901Z,14.00
2023-05-19T21:36:25.625Z,14.00
2023-05-19T21:39:11.365Z,14.00
2023-05-19T21:41:58.794Z,13.90
2023-05-19T21:44:44.718Z,13.90
2023-05-19T21:47:30.658Z,13.80
2023-05-19T21:50:18.693Z,13.80
2023-05-19T21:53:06.023Z,13.80
2023-05-19T21:55:52.321Z,13.70
2023-05-19T21:58:38.129Z,13.70
2023-05-19T22:01:24.081Z,13.60
2023-05-19T22:04:09.884Z,13.60
2023-05-19T22:06:56.006Z,13.50
2023-05-19T22:09:43.262Z,13.50
2023-05-19T22:12:30.903Z,13.40
2023-05-19T22:15:16.760Z,13.40
2023-05-19T22:18:02.764Z,13.30
2023-05-19T22:20:48.305Z,13.30
2023-05-19T22:23:33.967Z,13.20
2023-05-19T22:26:21.480Z,13.10
2023-05-19T22:29:07.064Z,13.10
2023-05-19T22:31:52.610Z,13.00
2023-05-19T22:35:05.116Z,13.00
2023-05-19T22:37:51.001Z,12.90
2023-05-19T22:40:36.968Z,12.80
2023-05-19T22:43:24.053Z,12.80
2023-05-19T22:46:10.003Z,12.80
2023-05-19T22:48:55.961Z,12.70
2023-05-19T22:51:41.540Z,12.70
2023-05-19T22:54:27.163Z,12.70
2023-05-19T22:57:12.640Z,12.60
2023-05-19T23:00:00.605Z,12.60
2023-05-19T23:02:46.533Z,12.60
2023-05-19T23:05:32.450Z,12.50
2023-05-19T23:08:18.355Z,12.50
2023-05-19T23:11:04.093Z,12.40
2023-05-19T23:13:49.568Z,12.40
2023-05-19T23:16:36.354Z,12.30
2023-05-19T23:19:22.427Z,12.30
2023-05-19T23:22:07.950Z,12.30
2023-05-19T23:24:54.217Z,12.20
2023-05-19T23:27:39.673Z,12.20
2023-05-19T23:30:26.299Z,12.10
2023-05-19T23:33:13.471Z,12.10
2023-05-19T23:35:59.803Z,12.10
2023-05-19T23:38:45.566Z,12.00
2023-05-19T23:41:31.375Z,12.00
2023-05-19T23:44:18.763Z,11.90
2023-05-19T23:47:04.955Z,11.90
2023-05-19T23:49:51.829Z,11.90
2023-05-19T23:52:37.538Z,11.90
2023-05-19T23:55:23.072Z,11.80
2023-05-19T23:58:08.682Z,11.80
